Time;durP1;ratioP1;P1;durP2;ratioP2;P2;SDS_P1;SDS_P2;PMS_P1;PMS_P2;Temp;Humidity;BMP_temperature;BMP_pressure;BME280_temperature;BME280_humidity;BME280_pressure;Samples;Min_cycle;Max_cycle;Signal;HPM_P1;HPM_P2
2022/06/06 00:01:59;;;;;;;41.88;24.50;;;;;;;14.18;100.00;101269.28;5012532;28;20277;-57
2022/06/06 00:04:29;;;;;;;43.28;26.67;;;;;;;14.07;100.00;101254.84;5013001;28;20082;-56
2022/06/06 00:06:57;;;;;;;42.40;25.55;;;;;;;14.15;100.00;101267.97;5013054;28;20136;-55
2022/06/06 00:09:23;;;;;;;41.97;24.42;;;;;;;14.14;100.00;101257.13;5013160;28;20053;-55
2022/06/06 00:11:48;;;;;;;40.13;25.55;;;;;;;14.12;100.00;101262.22;5013097;28;20072;-56
2022/06/06 00:14:15;;;;;;;40.97;24.58;;;;;;;14.12;100.00;101253.88;5012859;28;20415;-55
2022/06/06 00:16:40;;;;;;;39.92;25.63;;;;;;;14.14;100.00;101269.09;5012732;28;20033;-57
2022/06/06 00:19:06;;;;;;;38.42;24.40;;;;;;;14.14;100.00;101260.75;5012706;28;20033;-54
2022/06/06 00:21:33;;;;;;;43.55;25.70;;;;;;;14.13;100.00;101259.09;5012768;28;20056;-55
2022/06/06 00:24:00;;;;;;;40.50;24.35;;;;;;;14.12;100.00;101262.22;5012810;28;20478;-55
2022/06/06 00:26:28;;;;;;;42.63;25.23;;;;;;;14.12;100.00;101262.22;5012684;28;20080;-55
2022/06/06 00:28:54;;;;;;;44.10;25.15;;;;;;;14.14;100.00;101259.91;5012429;28;20120;-55
2022/06/06 00:36:47;;;;;;;38.97;24.60;;;;;;;14.16;100.00;101249.28;5012753;28;20083;-56
2022/06/06 00:39:15;;;;;;;40.72;24.95;;;;;;;14.10;100.00;101250.59;5012841;28;20026;-57
2022/06/06 00:41:53;;;;;;;41.72;26.10;;;;;;;14.14;100.00;101255.19;5012328;28;20077;-56
2022/06/06 00:44:30;;;;;;;40.40;25.60;;;;;;;14.13;100.00;101242.41;5012812;28;20120;-55
2022/06/06 00:47:16;;;;;;;42.85;26.95;;;;;;;14.10;100.00;101254.16;5012536;28;20129;-56
2022/06/06 00:49:46;;;;;;;43.65;26.08;;;;;;;14.07;100.00;101252.03;5012292;28;20049;-53
2022/06/06 00:52:17;;;;;;;45.50;27.40;;;;;;;14.00;100.00;101246.94;5012454;28;20037;-55
2022/06/06 00:54:44;;;;;;;47.35;27.75;;;;;;;14.06;100.00;101261.53;5012571;28;20366;-55
2022/06/06 00:57:15;;;;;;;46.47;26.38;;;;;;;14.03;100.00;101245.47;5012351;28;20022;-55
2022/06/06 00:59:42;;;;;;;46.83;29.20;;;;;;;14.04;100.00;101249.91;5012330;28;20129;-55
2022/06/06 01:02:11;;;;;;;46.22;29.02;;;;;;;13.94;100.00;101239.03;5011958;28;20080;-57
2022/06/06 01:04:39;;;;;;;42.92;29.17;;;;;;;14.01;100.00;101247.75;5012274;28;20444;-56
2022/06/06 01:07:06;;;;;;;46.10;29.52;;;;;;;13.99;100.00;101253.63;5012182;28;20057;-56
2022/06/06 01:09:32;;;;;;;48.13;30.23;;;;;;;14.01;100.00;101253.31;5012064;28;20041;-56
2022/06/06 01:12:00;;;;;;;43.38;28.80;;;;;;;14.01;100.00;101247.75;5011989;28;20030;-52
2022/06/06 01:14:29;;;;;;;47.22;30.38;;;;;;;14.03;100.00;101234.34;5012265;28;20050;-54
2022/06/06 01:17:12;;;;;;;47.88;30.10;;;;;;;14.01;100.00;101240.22;5012259;28;20030;-56
2022/06/06 01:20:17;;;;;;;47.77;29.43;;;;;;;14.08;100.00;101250.06;5012185;28;20032;-54
2022/06/06 01:23:20;;;;;;;49.50;30.48;;;;;;;14.01;100.00;101247.75;5002105;28;20131;-56
2022/06/06 01:26:15;;;;;;;49.72;31.27;;;;;;;14.00;100.00;101234.97;5010682;28;20054;-56
2022/06/06 01:29:09;;;;;;;49.47;31.38;;;;;;;14.01;100.00;101242.19;5012414;28;20041;-56
2022/06/06 01:31:45;;;;;;;51.97;32.00;;;;;;;14.01;100.00;101240.22;4986093;28;20393;-56
2022/06/06 01:34:12;;;;;;;49.38;31.15;;;;;;;13.99;100.00;101247.22;5012200;28;20029;-56
2022/06/06 01:36:40;;;;;;;47.85;31.50;;;;;;;13.99;100.00;101242.50;5012093;28;20084;-57
2022/06/06 01:39:12;;;;;;;49.08;31.10;;;;;;;14.00;100.00;101254.44;5012034;28;20120;-55
2022/06/06 01:42:08;;;;;;;48.33;31.02;;;;;;;13.98;100.00;101256.75;5012061;28;20025;-57
2022/06/06 01:44:43;;;;;;;49.75;31.73;;;;;;;13.95;100.00;101241.50;5012023;28;20080;-56
2022/06/06 01:47:13;;;;;;;49.60;31.25;;;;;;;13.96;100.00;101251.47;5012102;28;20057;-56
2022/06/06 01:49:40;;;;;;;50.35;32.05;;;;;;;13.97;100.00;101252.31;5011985;28;20030;-56
2022/06/06 01:52:12;;;;;;;51.35;33.10;;;;;;;13.97;100.00;101249.53;5012173;28;20450;-57
2022/06/06 01:54:38;;;;;;;51.75;33.40;;;;;;;13.95;100.00;101247.06;5012190;28;20026;-57
2022/06/06 01:57:05;;;;;;;53.88;33.10;;;;;;;13.94;100.00;101241.81;5011778;28;20084;-55
2022/06/06 01:59:31;;;;;;;61.45;35.45;;;;;;;13.91;100.00;101234.94;5013092;28;20041;-57
2022/06/06 02:01:56;;;;;;;55.92;36.45;;;;;;;13.87;100.00;101239.50;5015419;28;20041;-56
2022/06/06 02:04:22;;;;;;;53.35;34.90;;;;;;;13.91;100.00;101236.88;5015365;28;20033;-54
2022/06/06 02:06:48;;;;;;;59.40;37.35;;;;;;;13.93;100.00;101235.44;5015422;28;20034;-57
2022/06/06 02:09:13;;;;;;;61.10;39.03;;;;;;;13.95;100.00;101233.16;5015144;28;20076;-57
2022/06/06 02:11:40;;;;;;;61.35;37.78;;;;;;;13.95;100.00;101224.81;5015239;28;20118;-56
2022/06/06 02:14:06;;;;;;;57.65;36.83;;;;;;;13.95;100.00;101226.78;5015399;28;20084;-56
2022/06/06 02:16:32;;;;;;;58.88;37.67;;;;;;;13.92;100.00;101225.47;5015664;28;20104;-56
2022/06/06 02:18:57;;;;;;;56.25;37.15;;;;;;;13.91;100.00;101218.25;5015267;28;20507;-56
2022/06/06 02:21:22;;;;;;;58.17;37.28;;;;;;;13.92;100.00;101214.34;5014787;28;20551;-56
2022/06/06 02:23:48;;;;;;;55.78;37.88;;;;;;;13.92;100.00;101207.94;5014898;28;20454;-57
2022/06/06 02:26:14;;;;;;;58.75;37.72;;;;;;;13.92;100.00;101206.00;5084547;22;20080;-48
2022/06/06 02:28:40;;;;;;;57.80;36.78;;;;;;;13.93;100.00;101210.41;5093175;28;20027;-46
2022/06/06 02:31:06;;;;;;;55.65;35.45;;;;;;;13.95;100.00;101210.91;5092831;28;20028;-47
2022/06/06 02:33:32;;;;;;;55.53;37.50;;;;;;;13.97;100.00;101216.97;5093520;28;20031;-49
2022/06/06 02:36:00;;;;;;;56.00;36.72;;;;;;;14.02;100.00;101207.66;5094165;28;20035;-48
2022/06/06 02:38:26;;;;;;;55.17;36.28;;;;;;;14.02;100.00;101202.94;5093995;28;20109;-48
2022/06/06 02:40:51;;;;;;;56.70;37.67;;;;;;;14.02;100.00;101208.50;5093518;28;20131;-46
2022/06/06 02:43:18;;;;;;;56.63;36.88;;;;;;;14.02;100.00;101213.22;5093570;28;20032;-48
2022/06/06 02:45:46;;;;;;;59.20;37.03;;;;;;;14.01;100.00;101206.03;5094007;28;20020;-46
2022/06/06 02:48:12;;;;;;;52.88;35.95;;;;;;;14.03;100.00;101203.75;5094117;28;20016;-47
2022/06/06 02:50:38;;;;;;;54.20;37.67;;;;;;;14.02;100.00;101202.94;5093776;28;20432;-49
2022/06/06 02:53:05;;;;;;;55.50;35.60;;;;;;;14.02;100.00;101196.53;5093506;28;20034;-46
2022/06/06 02:55:31;;;;;;;53.33;35.85;;;;;;;14.09;100.00;101207.22;5093142;28;20034;-47
2022/06/06 02:57:59;;;;;;;50.65;34.08;;;;;;;14.10;100.00;101209.66;5093036;28;20028;-47
2022/06/06 03:00:27;;;;;;;52.25;35.45;;;;;;;14.09;100.00;101191.31;5093637;28;20024;-47
2022/06/06 03:02:54;;;;;;;49.50;31.42;;;;;;;14.12;100.00;101203.78;5093500;28;20518;-49
2022/06/06 03:05:19;;;;;;;53.13;35.72;;;;;;;14.17;100.00;101198.06;5093689;28;20047;-48
2022/06/06 03:07:53;;;;;;;55.17;36.20;;;;;;;14.11;100.00;101194.59;5093546;28;20435;-46
2022/06/06 03:10:33;;;;;;;56.78;35.95;;;;;;;14.15;100.00;101203.13;5092865;28;20061;-46
2022/06/06 03:13:16;;;;;;;58.20;37.47;;;;;;;14.09;100.00;101204.44;5093298;28;20032;-47
2022/06/06 03:22:02;;;;;;;;;;;;;;;14.14;100.00;101213.44;5093893;28;20410;-47
2022/06/06 03:24:42;;;;;;;;;;;;;;;14.07;100.00;101212.25;5093123;28;19908;-48
2022/06/06 03:27:50;;;;;;;50.85;33.00;;;;;;;14.06;100.00;101217.03;5093024;28;19919;-50
2022/06/06 03:30:32;;;;;;;54.80;35.42;;;;;;;13.99;100.00;101217.47;5049966;28;20033;-49
2022/06/06 03:33:23;;;;;;;53.65;34.33;;;;;;;13.96;100.00;101218.09;5090590;28;20058;-48
2022/06/06 03:36:12;;;;;;;50.83;34.45;;;;;;;13.97;100.00;101218.94;5092467;28;20352;-47
2022/06/06 03:38:46;;;;;;;48.28;31.67;;;;;;;13.92;100.00;101205.16;5091203;28;20039;-48
2022/06/06 03:41:23;;;;;;;52.72;33.97;;;;;;;13.95;100.00;101216.47;5092922;28;20116;-49
2022/06/06 03:43:51;;;;;;;50.13;33.75;;;;;;;13.93;100.00;101221.56;5092052;28;20020;-46
2022/06/06 03:46:41;;;;;;;45.95;31.48;;;;;;;13.92;100.00;101225.47;5091072;28;20031;-47
2022/06/06 03:49:39;;;;;;;47.35;32.92;;;;;;;13.92;100.00;101228.25;5092167;28;20447;-47
2022/06/06 03:52:47;;;;;;;49.92;32.42;;;;;;;13.89;100.00;101217.75;5092607;28;20141;-48
2022/06/06 03:55:45;;;;;;;48.28;31.77;;;;;;;13.93;100.00;101229.06;5068384;28;20039;-49
2022/06/06 03:58:14;;;;;;;44.22;27.25;;;;;;;13.94;100.00;101231.50;5072812;28;20506;-50
2022/06/06 04:00:40;;;;;;;45.17;30.23;;;;;;;13.89;100.00;101226.91;5090374;28;20127;-50
2022/06/06 04:03:07;;;;;;;46.28;30.80;;;;;;;13.88;100.00;101230.00;5092113;28;20209;-50
2022/06/06 04:05:36;;;;;;;41.90;28.23;;;;;;;13.84;100.00;101224.28;5091986;28;20020;-49
2022/06/06 04:08:02;;;;;;;43.80;28.77;;;;;;;13.85;99.93;101230.63;5091883;28;20178;-47
2022/06/06 04:10:41;;;;;;;42.25;28.33;;;;;;;13.87;99.94;101231.16;5091748;28;20081;-47
2022/06/06 04:13:20;;;;;;;42.92;27.85;;;;;;;13.84;99.29;101240.97;5091731;28;20107;-46
2022/06/06 04:16:16;;;;;;;41.45;28.45;;;;;;;13.85;98.47;101241.75;5091984;28;20104;-46
2022/06/06 04:19:00;;;;;;;40.58;26.77;;;;;;;13.80;98.78;101239.94;5091824;28;20459;-46
2022/06/06 04:21:50;;;;;;;41.75;26.85;;;;;;;13.69;98.87;101225.50;5091917;28;20031;-46
2022/06/06 04:24:30;;;;;;;41.63;28.02;;;;;;;13.81;98.54;101238.00;5091407;28;20067;-46
2022/06/06 04:27:20;;;;;;;39.17;26.92;;;;;;;13.88;97.98;101249.47;5090141;28;20062;-46
2022/06/06 04:30:02;;;;;;;39.00;26.77;;;;;;;13.65;97.18;101226.44;5071322;28;20028;-46
2022/06/06 04:32:51;;;;;;;37.50;24.50;;;;;;;13.78;97.47;101264.50;5071458;28;20082;-46
2022/06/06 04:35:28;;;;;;;37.65;25.17;;;;;;;13.73;97.27;101245.13;5071298;28;20039;-46
2022/06/06 04:38:26;;;;;;;36.95;25.08;;;;;;;13.82;97.37;101261.88;5069528;28;20039;-46
2022/06/06 04:41:36;;;;;;;37.30;24.42;;;;;;;13.72;97.00;101246.28;5071351;28;20446;-50
2022/06/06 04:44:22;;;;;;;34.55;22.33;;;;;;;13.76;96.72;101271.47;5069548;28;20044;-47
2022/06/06 04:46:54;;;;;;;37.15;23.38;;;;;;;13.68;95.98;101264.75;5071345;28;20064;-47
2022/06/06 04:49:21;;;;;;;36.55;23.52;;;;;;;13.67;95.44;101269.47;5071329;28;20033;-48
2022/06/06 04:51:48;;;;;;;33.83;22.48;;;;;;;13.63;95.32;101267.63;5071012;28;20028;-48
2022/06/06 04:54:16;;;;;;;36.78;23.40;;;;;;;13.57;95.04;101262.22;5070813;28;20103;-48
2022/06/06 04:56:43;;;;;;;34.38;22.73;;;;;;;13.59;94.73;101267.47;5070741;28;20085;-48
2022/06/06 04:59:11;;;;;;;33.88;22.63;;;;;;;13.56;94.72;101263.34;5070851;28;20044;-49
2022/06/06 05:01:38;;;;;;;35.20;23.33;;;;;;;13.64;93.07;101264.56;5070708;28;20395;-48
2022/06/06 05:04:04;;;;;;;36.53;23.77;;;;;;;13.60;93.33;101262.72;5070752;28;20031;-48
2022/06/06 05:06:54;;;;;;;35.38;22.80;;;;;;;13.62;93.51;101243.75;5070919;28;20016;-48
2022/06/06 05:09:45;;;;;;;33.67;22.83;;;;;;;13.69;93.56;101269.19;5070828;28;20028;-48
2022/06/06 05:12:32;;;;;;;34.88;23.40;;;;;;;13.70;93.07;101268.84;5070837;28;20363;-49
2022/06/06 05:15:29;;;;;;;34.28;22.42;;;;;;;13.74;92.30;101269.03;5070745;28;20029;-48
2022/06/06 05:18:07;;;;;;;34.30;22.48;;;;;;;13.80;90.83;101264.97;5062415;28;20044;-48
2022/06/06 05:20:48;;;;;;;34.95;23.10;;;;;;;13.81;91.63;101266.63;5071261;28;20029;-48
2022/06/06 05:23:25;;;;;;;33.60;21.20;;;;;;;13.94;89.89;101266.84;5071108;28;20090;-48
2022/06/06 05:25:59;;;;;;;33.80;23.70;;;;;;;13.95;89.81;101269.31;5071088;28;20040;-48
2022/06/06 05:28:43;;;;;;;31.52;22.58;;;;;;;13.97;90.07;101257.88;5071102;28;20032;-48
2022/06/06 05:31:15;;;;;;;32.53;22.73;;;;;;;14.09;89.02;101269.22;5071219;28;20029;-51
2022/06/06 05:33:51;;;;;;;31.75;22.52;;;;;;;14.03;88.88;101259.38;5071406;28;20052;-52
2022/06/06 05:36:32;;;;;;;33.15;21.90;;;;;;;14.14;88.12;101279.38;5074583;28;20028;-48
2022/06/06 05:39:13;;;;;;;31.08;21.90;;;;;;;14.08;88.19;101284.25;5074544;28;20036;-48
2022/06/06 05:42:25;;;;;;;35.28;23.33;;;;;;;14.13;88.94;101288.88;5074669;28;20032;-50
2022/06/06 05:45:16;;;;;;;32.05;22.98;;;;;;;14.15;88.74;101290.22;5064906;28;20040;-50
2022/06/06 05:48:17;;;;;;;33.92;24.25;;;;;;;14.19;88.31;101293.97;5074940;28;20033;-50
2022/06/06 05:50:58;;;;;;;34.05;24.23;;;;;;;14.19;87.94;101291.19;5074695;28;20028;-49
2022/06/06 05:53:43;;;;;;;34.33;23.60;;;;;;;14.28;86.96;101288.47;5074916;28;20028;-52
2022/06/06 05:56:21;;;;;;;30.00;21.13;;;;;;;14.30;85.05;101294.53;5074651;28;20096;-50
2022/06/06 05:59:01;;;;;;;31.52;22.80;;;;;;;14.22;86.59;101288.94;5074033;28;20032;-49
2022/06/06 06:01:32;;;;;;;30.02;21.05;;;;;;;14.25;84.95;101293.84;5074053;28;20036;-50
2022/06/06 06:04:18;;;;;;;31.92;22.02;;;;;;;14.22;85.29;101300.06;5074450;28;20063;-50
2022/06/06 06:07:22;;;;;;;29.95;21.38;;;;;;;14.29;85.97;101297.63;5074196;28;20090;-49
2022/06/06 06:10:06;;;;;;;30.83;21.52;;;;;;;14.28;84.81;101302.38;5071596;28;20033;-49
2022/06/06 06:13:14;;;;;;;29.08;21.25;;;;;;;14.41;84.57;101303.41;5073221;28;20040;-49
2022/06/06 06:15:42;;;;;;;28.98;20.10;;;;;;;14.37;82.60;101294.06;5031413;28;20034;-47
2022/06/06 06:18:20;;;;;;;27.15;18.50;;;;;;;14.48;82.25;101294.59;5067934;28;20428;-48
2022/06/06 06:20:59;;;;;;;25.52;18.63;;;;;;;14.29;82.07;101292.06;5072653;28;20182;-49
2022/06/06 06:23:28;;;;;;;26.77;17.80;;;;;;;14.38;81.13;101294.91;5073101;28;20109;-48
2022/06/06 06:25:57;;;;;;;26.23;18.98;;;;;;;14.36;82.00;101306.31;5073383;28;20044;-47
2022/06/06 06:28:25;;;;;;;27.85;19.35;;;;;;;14.39;82.24;101305.69;5072939;28;20032;-47
2022/06/06 06:31:09;;;;;;;28.25;19.60;;;;;;;14.55;82.37;101314.44;5073715;28;20064;-47
2022/06/06 06:33:43;;;;;;;25.92;18.92;;;;;;;14.61;82.52;101318.72;5073977;28;20105;-48
2022/06/06 06:36:24;;;;;;;26.05;19.80;;;;;;;14.63;82.27;101315.63;5074514;28;20040;-50
2022/06/06 06:39:03;;;;;;;25.85;18.73;;;;;;;14.71;81.59;101311.25;5073934;28;20028;-50
2022/06/06 06:41:47;;;;;;;26.77;19.20;;;;;;;14.76;80.78;101314.69;5073525;28;20039;-52
2022/06/06 06:44:29;;;;;;;25.98;18.33;;;;;;;14.87;79.80;101328.31;5073581;28;20025;-47
2022/06/06 06:46:59;;;;;;;25.85;17.90;;;;;;;14.86;78.78;101326.69;5072649;28;20028;-51
2022/06/06 06:49:39;;;;;;;24.02;17.23;;;;;;;15.00;79.77;101332.13;5073626;28;20512;-50
2022/06/06 06:52:25;;;;;;;24.50;15.20;;;;;;;15.03;78.15;101329.50;5073825;28;20045;-52
2022/06/06 06:54:58;;;;;;;23.15;15.75;;;;;;;15.02;77.73;101338.19;5074140;28;20348;-51
2022/06/06 06:57:45;;;;;;;22.98;15.93;;;;;;;15.08;79.28;101331.31;5072571;28;20538;-51
2022/06/06 07:00:19;;;;;;;23.10;14.35;;;;;;;15.18;75.92;101331.00;5073531;28;20105;-49
2022/06/06 07:09:28;;;;;;;21.25;13.63;;;;;;;15.44;76.57;101335.81;5073103;28;20087;-47
2022/06/06 07:11:59;;;;;;;20.48;12.88;;;;;;;15.42;75.24;101326.94;5072165;28;20028;-51
2022/06/06 07:15:07;;;;;;;18.63;11.82;;;;;;;15.57;75.10;101337.59;5073299;28;20121;-48
2022/06/06 07:17:40;;;;;;;19.00;11.40;;;;;;;15.55;73.59;101328.72;5075466;28;20044;-47
2022/06/06 07:20:09;;;;;;;19.80;10.97;;;;;;;15.65;72.25;101329.53;5077384;28;20020;-50
2022/06/06 07:22:59;;;;;;;17.65;10.02;;;;;;;15.70;72.95;101333.00;5072089;28;20392;-47
2022/06/06 07:25:25;;;;;;;18.38;10.93;;;;;;;15.87;71.75;101334.97;5080986;28;20048;-48
2022/06/06 07:27:51;;;;;;;18.58;10.48;;;;;;;15.84;71.50;101334.81;5072951;28;20064;-47
2022/06/06 07:30:17;;;;;;;18.88;10.43;;;;;;;15.89;72.01;101331.84;5074643;28;20056;-47
2022/06/06 07:33:21;;;;;;;16.42;9.75;;;;;;;16.01;72.71;101339.56;5069582;28;20483;-47
2022/06/06 07:36:01;;;;;;;16.58;9.85;;;;;;;16.02;68.98;101343.97;5060456;28;20070;-47
2022/06/06 07:38:48;;;;;;;16.17;9.93;;;;;;;16.05;69.56;101344.16;5068832;28;20087;-47
2022/06/06 07:41:35;;;;;;;17.33;9.90;;;;;;;16.06;68.51;101342.97;5069860;28;20117;-47
2022/06/06 07:44:25;;;;;;;17.90;10.15;;;;;;;16.05;67.99;101337.72;5070201;28;20468;-47
2022/06/06 07:47:01;;;;;;;16.48;10.40;;;;;;;16.13;66.74;101344.47;5070588;28;20529;-49
2022/06/06 07:49:33;;;;;;;16.25;10.85;;;;;;;16.08;65.74;101351.03;5070220;28;20179;-47
2022/06/06 07:52:18;;;;;;;17.77;10.75;;;;;;;16.08;67.40;101351.03;5070321;28;20067;-47
2022/06/06 07:55:02;;;;;;;17.20;10.85;;;;;;;16.05;67.00;101360.91;5070014;28;20071;-49
2022/06/06 07:58:00;;;;;;;16.27;10.50;;;;;;;16.16;67.49;101354.94;5070813;28;20032;-48
2022/06/06 08:00:28;;;;;;;17.55;10.63;;;;;;;16.06;66.37;101354.13;5078776;28;20116;-49
2022/06/06 08:03:07;;;;;;;18.52;11.20;;;;;;;16.01;67.49;101356.31;5076276;28;20021;-48
2022/06/06 08:06:00;;;;;;;17.75;11.05;;;;;;;16.11;67.73;101357.91;5069912;28;20487;-48
2022/06/06 08:08:55;;;;;;;14.88;10.13;;;;;;;16.03;66.54;101338.06;5069538;28;20028;-47
2022/06/06 08:11:32;;;;;;;;;;;;;;;16.07;66.72;101346.59;5070559;28;20029;-48
2022/06/06 08:14:22;;;;;;;16.77;9.95;;;;;;;15.96;66.69;101348.94;5070002;28;20626;-48
2022/06/06 08:17:02;;;;;;;18.10;10.85;;;;;;;16.00;65.91;101347.09;5071832;28;20024;-48
2022/06/06 08:19:49;;;;;;;16.27;10.07;;;;;;;16.26;65.46;101356.56;5070570;28;20021;-47
2022/06/06 08:22:15;;;;;;;12.85;9.27;;;;;;;16.29;63.46;101337.19;5069898;28;20103;-48
2022/06/06 08:24:45;;;;;;;13.70;9.48;;;;;;;16.38;63.73;101348.34;5070219;28;20457;-47
2022/06/06 08:27:14;;;;;;;15.82;9.60;;;;;;;16.39;64.15;101333.19;5070897;28;20051;-49
2022/06/06 08:29:41;;;;;;;16.00;9.88;;;;;;;16.47;65.11;101334.31;5069628;28;20107;-48
2022/06/06 08:32:07;;;;;;;14.88;9.82;;;;;;;16.52;63.20;101337.75;5070849;28;20024;-48
2022/06/06 08:34:33;;;;;;;15.35;9.70;;;;;;;16.53;62.40;101338.59;5072286;28;20047;-47
2022/06/06 08:37:13;;;;;;;15.85;9.90;;;;;;;16.60;63.55;101347.25;5091566;28;20055;-47
2022/06/06 08:40:14;;;;;;;16.63;9.85;;;;;;;16.71;62.92;101339.31;5091175;28;20467;-46
2022/06/06 08:43:03;;;;;;;14.23;9.35;;;;;;;16.74;62.98;101329.44;5091287;28;20471;-47
2022/06/06 08:45:47;;;;;;;15.68;9.90;;;;;;;16.76;63.65;101339.13;5091349;28;20374;-46
2022/06/06 08:48:17;;;;;;;13.35;9.50;;;;;;;16.66;63.92;101340.31;5091145;28;20439;-47
2022/06/06 08:50:58;;;;;;;14.27;9.68;;;;;;;16.64;63.74;101328.66;5090631;28;20024;-47
2022/06/06 08:53:46;;;;;;;16.52;9.80;;;;;;;16.62;63.82;101322.59;5091131;28;20039;-49
2022/06/06 08:56:36;;;;;;;15.95;9.70;;;;;;;16.63;63.91;101321.44;5091421;28;20036;-47
2022/06/06 08:59:23;;;;;;;13.63;9.32;;;;;;;16.64;63.02;101323.06;5091931;28;20032;-47
2022/06/06 09:02:26;;;;;;;13.57;9.50;;;;;;;16.86;63.79;101323.16;5091107;28;20149;-48
2022/06/06 09:05:01;;;;;;;16.75;9.35;;;;;;;17.29;63.76;101319.25;5091513;28;20032;-47
2022/06/06 09:07:45;;;;;;;13.35;8.70;;;;;;;17.43;62.79;101321.78;5091170;28;20024;-48
2022/06/06 09:11:12;;;;;;;13.35;8.98;;;;;;;17.37;63.00;101311.97;5093580;28;20032;-48
2022/06/06 09:13:47;;;;;;;14.38;9.02;;;;;;;17.23;62.26;101299.06;5095604;28;20040;-47
2022/06/06 09:16:32;;;;;;;16.45;9.30;;;;;;;17.52;62.39;101316.13;5095158;28;20426;-48
2022/06/06 09:19:45;;;;;;;16.70;9.57;;;;;;;17.78;61.84;101318.66;5095274;28;20423;-47
2022/06/06 09:22:27;;;;;;;17.50;11.07;;;;;;;17.96;60.32;101329.69;5057303;28;20438;-48
2022/06/06 09:25:14;;;;;;;19.50;11.38;;;;;;;18.15;59.38;101326.41;5096020;28;20066;-48
2022/06/06 09:28:16;;;;;;;18.95;11.02;;;;;;;18.29;60.25;101320.47;5096152;28;20106;-49
2022/06/06 09:31:19;;;;;;;17.23;11.13;;;;;;;18.49;58.71;101316.75;5095903;28;20028;-48
2022/06/06 09:34:11;;;;;;;19.00;11.50;;;;;;;18.61;58.31;101301.94;5095467;28;20475;-49
2022/06/06 09:36:46;;;;;;;16.92;10.25;;;;;;;18.44;56.96;101296.56;5093745;28;20020;-48
2022/06/06 09:39:49;;;;;;;18.80;10.93;;;;;;;18.36;58.35;101299.13;5092882;28;20043;-48
2022/06/06 09:42:36;;;;;;;16.00;9.52;;;;;;;18.48;57.89;101281.50;5094325;28;20027;-49
2022/06/06 09:45:19;;;;;;;14.73;9.07;;;;;;;18.67;56.62;101300.53;5095525;28;20032;-48
2022/06/06 09:48:22;;;;;;;15.57;8.75;;;;;;;18.71;56.98;101284.66;5085664;28;20025;-48
2022/06/06 09:51:18;;;;;;;11.75;8.30;;;;;;;18.55;57.19;101278.94;5074356;28;20047;-47
2022/06/06 10:00:09;;;;;;;13.73;9.15;;;;;;;18.65;56.70;101282.44;5085598;28;20035;-47
2022/06/06 10:03:12;;;;;;;12.88;8.70;;;;;;;18.44;57.02;101286.16;5084372;28;20100;-48
2022/06/06 10:06:09;;;;;;;15.05;8.70;;;;;;;18.04;57.00;101290.44;5092675;28;20036;-49
2022/06/06 10:08:49;;;;;;;12.75;8.80;;;;;;;18.00;56.70;101283.06;5094625;28;20038;-47
2022/06/06 10:11:41;;;;;;;14.35;8.52;;;;;;;17.98;57.66;101277.84;5094118;28;20128;-47
2022/06/06 10:14:27;;;;;;;12.82;8.40;;;;;;;17.97;56.39;101265.00;5062423;28;20403;-49
2022/06/06 10:17:08;;;;;;;12.05;8.20;;;;;;;18.04;55.25;101270.84;5094376;28;20093;-47
2022/06/06 10:20:22;;;;;;;11.48;7.93;;;;;;;18.13;57.19;101275.50;5094077;28;20528;-47
2022/06/06 10:23:06;;;;;;;12.23;7.90;;;;;;;18.30;55.57;101257.69;5070202;28;20044;-47
2022/06/06 10:25:34;;;;;;;12.18;8.13;;;;;;;18.54;54.84;101268.88;5093119;28;20047;-47
2022/06/06 10:28:23;;;;;;;11.52;7.70;;;;;;;18.69;53.93;101263.75;5093677;28;20046;-47
2022/06/06 10:31:12;;;;;;;11.55;7.90;;;;;;;18.94;53.47;101263.75;5093921;28;20031;-50
2022/06/06 10:34:04;;;;;;;11.90;8.40;;;;;;;18.92;52.81;101254.84;5094100;28;20498;-48
2022/06/06 10:36:46;;;;;;;12.38;8.50;;;;;;;18.78;54.79;101238.41;5094369;28;20127;-47
2022/06/06 10:39:39;;;;;;;11.70;8.75;;;;;;;18.86;55.38;101249.47;5094553;28;20085;-47
2022/06/06 10:42:30;;;;;;;11.70;8.60;;;;;;;18.85;54.22;101258.22;5082145;28;20055;-48
2022/06/06 10:45:29;;;;;;;11.00;8.40;;;;;;;18.96;54.21;101276.22;5084325;28;20027;-49
2022/06/06 10:48:22;;;;;;;10.88;7.80;;;;;;;19.08;52.58;101266.16;5073966;28;20036;-47
2022/06/06 10:53:53;;;;;;;10.85;8.18;;;;;;;19.59;50.33;101258.03;5074499;28;20452;-46
2022/06/06 10:57:00;;;;;;;12.60;8.52;;;;;;;19.60;50.86;101261.66;5074280;28;20032;-47
2022/06/06 10:59:40;;;;;;;15.25;9.20;;;;;;;19.44;52.59;101253.19;5073560;28;20467;-47
2022/06/06 11:02:40;;;;;;;12.77;8.43;;;;;;;19.55;51.43;101261.91;5074147;28;20109;-47
2022/06/06 11:05:24;;;;;;;14.77;8.70;;;;;;;19.33;52.57;101266.91;5021672;28;20040;-47
2022/06/06 11:08:30;;;;;;;11.52;8.60;;;;;;;19.17;53.27;101264.88;5073280;28;20471;-47
2022/06/06 11:11:14;;;;;;;13.60;7.90;;;;;;;19.15;53.63;101252.34;5048668;28;20127;-47
2022/06/06 11:14:00;;;;;;;11.80;7.63;;;;;;;19.19;52.35;101242.06;5073135;28;20025;-47
2022/06/06 11:16:38;;;;;;;13.45;8.18;;;;;;;19.22;51.60;101252.59;5074863;28;20482;-47
2022/06/06 11:19:37;;;;;;;13.50;8.35;;;;;;;19.16;52.45;101246.41;5092835;28;20111;-47
2022/06/06 11:22:32;;;;;;;12.48;8.00;;;;;;;19.35;53.39;101239.31;5092802;28;20104;-49
2022/06/06 11:25:16;;;;;;;12.40;7.80;;;;;;;19.53;52.91;101227.78;5092417;28;20027;-48
2022/06/06 11:27:51;;;;;;;11.80;7.60;;;;;;;19.64;52.07;101226.09;5093142;28;20036;-51
2022/06/06 11:30:45;;;;;;;14.35;8.57;;;;;;;19.94;52.02;101225.69;5092720;28;20170;-48
2022/06/06 11:33:44;;;;;;;10.90;8.00;;;;;;;20.22;50.27;101205.09;5092106;28;20130;-48
2022/06/06 11:36:28;;;;;;;12.60;8.45;;;;;;;20.19;50.42;101223.50;5092123;28;20120;-48
2022/06/06 11:39:12;;;;;;;;;;;;;;;20.25;49.47;101215.63;5092984;28;20063;-50
2022/06/06 11:42:12;;;;;;;12.37;8.00;;;;;;;20.41;48.71;101218.44;5092640;28;20378;-47
2022/06/06 11:44:58;;;;;;;10.73;7.60;;;;;;;20.28;48.52;101212.09;5092157;28;20032;-51
2022/06/06 11:47:51;;;;;;;11.23;8.35;;;;;;;20.21;48.94;101209.13;5091791;28;20128;-50
2022/06/06 11:50:49;;;;;;;12.40;8.73;;;;;;;20.32;48.70;101218.59;5092709;28;20028;-49
2022/06/06 11:53:47;;;;;;;12.00;8.45;;;;;;;20.18;47.67;101221.06;5091162;28;20077;-49
2022/06/06 11:56:45;;;;;;;11.13;8.75;;;;;;;19.64;49.03;101226.91;5092892;28;20059;-48
2022/06/06 11:59:38;;;;;;;12.60;8.95;;;;;;;19.30;49.63;101243.19;5092327;28;20447;-48
2022/06/06 12:02:34;;;;;;;14.38;9.07;;;;;;;18.81;51.38;101226.47;5092852;28;20478;-48
2022/06/06 12:05:22;;;;;;;13.55;8.90;;;;;;;18.73;52.14;101247.84;5092736;28;20031;-51
2022/06/06 12:08:23;;;;;;;12.02;8.90;;;;;;;18.64;53.30;101224.75;5092600;28;20031;-51
2022/06/06 12:11:12;;;;;;;12.57;8.50;;;;;;;18.79;51.45;101246.47;5092399;28;20050;-47
2022/06/06 12:13:46;;;;;;;10.95;8.52;;;;;;;18.61;51.48;101243.09;5092395;28;20107;-47
2022/06/06 12:16:35;;;;;;;12.05;8.68;;;;;;;18.53;52.90;101244.84;5092150;28;20024;-48
2022/06/06 12:19:06;;;;;;;13.13;8.95;;;;;;;18.45;52.57;101247.78;5092109;28;20028;-50
2022/06/06 12:21:57;;;;;;;13.45;8.60;;;;;;;18.36;53.64;101233.88;5091812;28;20040;-47
2022/06/06 12:24:31;;;;;;;12.55;8.90;;;;;;;18.29;53.82;101239.25;5091543;28;20093;-46
2022/06/06 12:27:29;;;;;;;15.07;9.00;;;;;;;18.28;53.90;101241.22;5091336;28;20044;-48
2022/06/06 12:30:13;;;;;;;15.35;8.93;;;;;;;18.13;54.50;101248.34;5091755;28;20024;-50
2022/06/06 12:32:52;;;;;;;11.82;8.85;;;;;;;18.13;56.65;101251.16;5091758;28;20053;-51
2022/06/06 12:35:34;;;;;;;14.18;8.48;;;;;;;18.17;56.65;101254.06;5091415;28;20470;-46
2022/06/06 12:38:11;;;;;;;13.18;8.90;;;;;;;18.13;58.63;101237.16;5091464;28;20068;-52